Time;durP1;ratioP1;P1;durP2;ratioP2;P2;SDS_P1;SDS_P2;PMS_P1;PMS_P2;Temp;Humidity;BMP_temperature;BMP_pressure;BME280_temperature;BME280_humidity;BME280_pressure;Samples;Min_cycle;Max_cycle;Signal;HPM_P1;HPM_P2
2023/06/08 00:01:57;;;;;;;8.20;7.13;;;;;;;18.75;100.00;99047.84;5027017;28;20266;-77
2023/06/08 00:04:30;;;;;;;8.43;7.43;;;;;;;18.84;100.00;99049.63;5030994;28;20212;-77
2023/06/08 00:06:59;;;;;;;9.00;7.37;;;;;;;18.78;100.00;99040.34;5029274;28;20228;-76
2023/06/08 00:09:28;;;;;;;9.63;6.90;;;;;;;18.72;100.00;99045.47;5026966;28;20198;-77
2023/06/08 00:11:58;;;;;;;8.83;7.23;;;;;;;18.88;100.00;99038.41;4984486;28;20206;-77
2023/06/08 00:14:26;;;;;;;8.00;7.30;;;;;;;18.65;100.00;99041.72;4982960;28;20203;-77
2023/06/08 00:16:57;;;;;;;8.50;7.53;;;;;;;18.51;100.00;99033.16;4931628;29;20197;-77
2023/06/08 00:19:27;;;;;;;9.40;7.10;;;;;;;18.56;100.00;99040.75;4924829;29;20310;-77
2023/06/08 00:21:56;;;;;;;8.93;7.57;;;;;;;18.52;100.00;99036.69;4927346;29;20232;-77
2023/06/08 00:24:27;;;;;;;9.57;7.80;;;;;;;18.49;100.00;99039.66;4931376;29;20221;-77
2023/06/08 00:26:55;;;;;;;8.17;7.37;;;;;;;18.63;100.00;99032.97;4931934;29;20292;-77
2023/06/08 00:29:24;;;;;;;8.30;7.50;;;;;;;18.48;100.00;99029.94;4932721;29;20251;-77
2023/06/08 00:31:53;;;;;;;8.50;7.60;;;;;;;18.27;100.00;99031.06;4944888;29;20212;-77
2023/06/08 00:34:21;;;;;;;7.60;6.77;;;;;;;18.31;100.00;99028.91;4963151;28;20205;-77
2023/06/08 00:36:51;;;;;;;8.27;7.20;;;;;;;18.23;100.00;99035.00;5022964;28;20201;-77
2023/06/08 00:39:20;;;;;;;10.73;7.53;;;;;;;18.33;100.00;99028.75;5023879;28;20667;-77
2023/06/08 00:41:48;;;;;;;9.70;7.70;;;;;;;18.15;100.00;99031.44;5025371;28;20228;-76
2023/06/08 00:44:18;;;;;;;10.83;8.03;;;;;;;18.19;100.00;99030.97;5025599;28;20235;-77
2023/06/08 00:46:47;;;;;;;8.73;7.87;;;;;;;17.91;100.00;99029.28;5021932;28;20208;-77
2023/06/08 00:49:16;;;;;;;8.17;7.37;;;;;;;17.88;100.00;99026.91;5030482;28;20239;-77
2023/06/08 00:51:46;;;;;;;10.00;7.93;;;;;;;18.07;100.00;99024.13;5027560;28;20265;-77
2023/06/08 00:54:17;;;;;;;12.90;8.47;;;;;;;18.17;100.00;99029.44;5033011;28;20393;-77
2023/06/08 00:56:48;;;;;;;11.23;7.87;;;;;;;18.15;100.00;99026.06;5033343;28;20193;-77
2023/06/08 00:59:17;;;;;;;8.70;7.77;;;;;;;18.15;100.00;99029.59;5023920;28;20205;-77
2023/06/08 01:01:47;;;;;;;12.83;8.10;;;;;;;18.03;100.00;99025.41;5027960;28;20225;-77
2023/06/08 01:04:15;;;;;;;10.93;8.20;;;;;;;17.93;100.00;99024.59;5027676;28;20224;-77
2023/06/08 01:06:48;;;;;;;8.73;7.93;;;;;;;17.76;100.00;99028.91;5029357;28;20198;-77
2023/06/08 01:09:28;;;;;;;9.00;8.10;;;;;;;17.96;100.00;99027.00;5033027;28;20197;-77
2023/06/08 01:12:09;;;;;;;9.60;8.60;;;;;;;17.79;100.00;99023.25;5024938;28;20197;-77
2023/06/08 01:14:46;;;;;;;9.00;8.10;;;;;;;17.97;100.00;99020.66;5020915;28;20212;-77
2023/06/08 01:17:18;;;;;;;9.40;8.30;;;;;;;18.01;100.00;99017.50;5026154;28;20221;-77
2023/06/08 01:20:08;;;;;;;8.93;7.53;;;;;;;17.90;100.00;99020.38;5023635;28;20248;-77
2023/06/08 01:22:53;;;;;;;10.17;7.70;;;;;;;17.90;100.00;99014.19;5028658;28;20217;-77
2023/06/08 01:25:26;;;;;;;8.37;7.47;;;;;;;18.03;100.00;99018.19;5024727;28;20202;-77
2023/06/08 01:28:00;;;;;;;7.83;7.10;;;;;;;18.03;100.00;99017.34;5022546;28;20237;-77
2023/06/08 01:30:28;;;;;;;8.63;7.13;;;;;;;17.95;100.00;99011.88;5023777;28;20280;-77
2023/06/08 01:32:57;;;;;;;8.10;7.30;;;;;;;18.09;100.00;99016.75;5029893;28;20198;-77
2023/06/08 01:35:25;;;;;;;8.00;7.07;;;;;;;17.84;100.00;99006.72;5027706;28;20202;-76
2023/06/08 01:37:59;;;;;;;8.23;7.43;;;;;;;17.73;100.00;99015.78;5032688;28;20202;-77
2023/06/08 01:40:36;;;;;;;10.67;7.80;;;;;;;17.80;100.00;99011.56;5024696;28;20207;-77
2023/06/08 01:43:08;;;;;;;7.93;7.10;;;;;;;17.64;100.00;99012.13;5025566;28;20227;-77
2023/06/08 01:45:41;;;;;;;11.00;8.20;;;;;;;17.54;100.00;99016.69;5026667;28;20217;-77
2023/06/08 01:48:11;;;;;;;7.80;7.10;;;;;;;17.76;100.00;99009.28;5029528;28;20193;-77
2023/06/08 01:50:41;;;;;;;7.70;7.00;;;;;;;17.67;100.00;99014.53;5024572;28;20277;-77
2023/06/08 01:53:11;;;;;;;8.20;7.03;;;;;;;17.70;100.00;99010.75;5021912;28;20208;-77
2023/06/08 01:55:41;;;;;;;10.27;7.43;;;;;;;17.69;100.00;99011.72;5021023;28;20366;-77
2023/06/08 01:58:09;;;;;;;8.67;7.77;;;;;;;17.63;100.00;99017.63;5023208;28;20200;-77
2023/06/08 02:00:37;;;;;;;11.20;7.80;;;;;;;17.66;100.00;99006.63;5029503;28;20316;-77
2023/06/08 02:03:06;;;;;;;9.80;7.87;;;;;;;17.62;100.00;99006.09;5024998;28;20252;-77
2023/06/08 02:05:34;;;;;;;7.77;7.07;;;;;;;17.62;100.00;99007.91;5026043;28;20264;-77
2023/06/08 02:08:03;;;;;;;11.33;7.93;;;;;;;17.52;100.00;99005.28;5026877;28;20204;-77
2023/06/08 02:10:31;;;;;;;10.53;7.77;;;;;;;17.62;100.00;99010.59;5010537;28;20261;-77
2023/06/08 02:13:01;;;;;;;9.60;7.47;;;;;;;17.55;100.00;99012.16;4999991;28;20245;-76
2023/06/08 02:15:29;;;;;;;8.73;7.20;;;;;;;17.57;100.00;99007.53;5000748;28;20221;-77
2023/06/08 02:17:59;;;;;;;8.43;7.60;;;;;;;17.47;100.00;99007.56;5008946;28;20213;-77
2023/06/08 02:20:30;;;;;;;9.77;8.00;;;;;;;17.58;100.00;99004.69;5002806;28;20226;-77
2023/06/08 02:22:59;;;;;;;8.43;7.30;;;;;;;17.63;100.00;99007.78;5007707;28;20225;-77
2023/06/08 02:25:28;;;;;;;8.33;7.50;;;;;;;17.56;100.00;99006.66;5002704;28;20195;-77
2023/06/08 02:27:57;;;;;;;11.17;7.20;;;;;;;17.63;100.00;99005.09;5001134;28;20234;-77
2023/06/08 02:30:29;;;;;;;8.90;8.00;;;;;;;17.55;100.00;99004.97;5000174;28;20210;-77
2023/06/08 02:32:57;;;;;;;8.63;7.73;;;;;;;17.61;100.00;98996.38;5002813;28;20202;-77
2023/06/08 02:35:26;;;;;;;8.23;7.23;;;;;;;17.45;100.00;99005.00;5020646;28;20206;-77
2023/06/08 02:37:54;;;;;;;7.83;7.13;;;;;;;17.55;100.00;98998.78;5029381;28;20636;-77
2023/06/08 02:40:23;;;;;;;8.47;7.57;;;;;;;17.40;100.00;98998.41;5025410;28;20198;-77
2023/06/08 02:42:51;;;;;;;9.53;7.73;;;;;;;17.53;100.00;98992.72;5024056;28;20212;-77
2023/06/08 02:45:21;;;;;;;8.33;7.53;;;;;;;17.27;100.00;99001.38;5033096;28;20249;-77
2023/06/08 02:47:50;;;;;;;8.87;8.03;;;;;;;17.25;100.00;98999.84;5024495;28;20204;-77
2023/06/08 02:50:22;;;;;;;8.20;7.50;;;;;;;17.29;100.00;99001.25;5035594;28;20205;-77
2023/06/08 02:52:51;;;;;;;8.27;7.47;;;;;;;17.28;100.00;99004.94;5030313;28;20202;-77
2023/06/08 02:55:19;;;;;;;8.60;7.67;;;;;;;17.11;100.00;99004.69;5031359;28;20240;-77
2023/06/08 02:57:49;;;;;;;9.73;7.67;;;;;;;17.24;100.00;98999.00;4993365;28;20210;-77
2023/06/08 03:00:20;;;;;;;8.30;7.50;;;;;;;17.22;100.00;98992.13;5028877;28;20228;-76
2023/06/08 03:02:50;;;;;;;8.53;7.53;;;;;;;17.02;100.00;99005.53;4965906;28;20223;-77
2023/06/08 03:05:21;;;;;;;8.70;7.53;;;;;;;17.09;100.00;99003.97;4965448;28;20251;-77
2023/06/08 03:07:49;;;;;;;7.97;7.13;;;;;;;17.14;100.00;98996.34;4966329;28;20254;-77
2023/06/08 03:10:17;;;;;;;8.07;7.23;;;;;;;17.02;100.00;98996.66;4963790;28;20655;-77
2023/06/08 03:12:48;;;;;;;8.00;7.20;;;;;;;17.12;100.00;98992.97;4966897;28;20208;-77
2023/06/08 03:15:22;;;;;;;8.00;7.10;;;;;;;17.07;100.00;98994.38;4969399;28;20204;-77
2023/06/08 03:17:52;;;;;;;8.93;7.10;;;;;;;17.06;100.00;98995.38;4966447;28;20282;-77
2023/06/08 03:20:21;;;;;;;10.77;7.23;;;;;;;16.97;100.00;98991.72;4981017;28;20194;-77
2023/06/08 03:22:49;;;;;;;9.50;7.30;;;;;;;17.15;100.00;98990.00;5028602;28;20206;-77
2023/06/08 03:25:21;;;;;;;9.07;7.03;;;;;;;17.09;100.00;98993.28;5032072;28;20217;-77
2023/06/08 03:27:49;;;;;;;10.67;7.37;;;;;;;17.22;100.00;98994.78;4979707;28;20229;-77
2023/06/08 03:30:17;;;;;;;10.13;7.53;;;;;;;17.14;100.00;98985.66;5028783;28;20232;-77
2023/06/08 03:32:48;;;;;;;10.03;7.17;;;;;;;17.10;100.00;98986.09;5025935;28;20208;-77
2023/06/08 03:35:19;;;;;;;10.27;7.33;;;;;;;17.01;100.00;98992.31;5027306;28;20276;-76
2023/06/08 03:37:48;;;;;;;8.10;7.30;;;;;;;17.20;100.00;98992.25;5029151;28;20206;-77
2023/06/08 03:40:16;;;;;;;8.07;7.30;;;;;;;17.08;100.00;98986.22;5025321;28;20212;-77
2023/06/08 03:42:44;;;;;;;8.20;7.33;;;;;;;16.99;100.00;98989.78;5027153;28;20361;-77
2023/06/08 03:45:13;;;;;;;7.63;6.80;;;;;;;16.92;100.00;98987.81;5028253;28;20260;-77
2023/06/08 03:47:41;;;;;;;8.83;7.90;;;;;;;16.85;100.00;98992.88;5022207;28;20217;-77
2023/06/08 03:50:11;;;;;;;8.93;7.73;;;;;;;16.95;100.00;98998.22;5027841;28;20725;-78
2023/06/08 03:52:41;;;;;;;8.23;7.27;;;;;;;17.00;100.00;99004.00;5027227;28;20197;-77
2023/06/08 03:55:11;;;;;;;9.43;7.47;;;;;;;16.98;100.00;98996.09;5030427;28;20193;-77
2023/06/08 03:57:40;;;;;;;7.87;7.07;;;;;;;17.06;100.00;98992.69;5026063;28;20222;-77
2023/06/08 04:00:11;;;;;;;7.70;7.00;;;;;;;17.07;100.00;98994.38;5028536;28;20263;-76
2023/06/08 04:02:40;;;;;;;10.33;7.70;;;;;;;17.14;100.00;98992.81;5027720;28;20219;-77
2023/06/08 04:05:10;;;;;;;8.30;6.93;;;;;;;17.16;100.00;98989.00;5029601;28;20220;-77
2023/06/08 04:07:41;;;;;;;10.53;7.83;;;;;;;17.19;100.00;98985.22;5025001;28;20201;-77
2023/06/08 04:10:12;;;;;;;10.03;7.77;;;;;;;17.04;100.00;98984.81;5025176;28;20204;-77
2023/06/08 04:12:40;;;;;;;8.13;7.10;;;;;;;17.24;100.00;98987.44;5027009;28;20208;-77
2023/06/08 04:15:10;;;;;;;7.93;7.23;;;;;;;16.94;100.00;98991.19;5028469;28;20202;-77
2023/06/08 04:17:41;;;;;;;8.10;7.30;;;;;;;17.19;100.00;98982.56;5028516;28;20198;-77
2023/06/08 04:20:12;;;;;;;7.67;6.97;;;;;;;17.34;100.00;98988.28;5022293;28;20301;-77
2023/06/08 04:22:42;;;;;;;7.47;6.77;;;;;;;17.38;100.00;98987.00;5027260;28;20209;-77
2023/06/08 04:25:11;;;;;;;7.97;7.17;;;;;;;17.26;100.00;98983.63;5020560;28;20232;-77
2023/06/08 04:27:40;;;;;;;9.27;7.20;;;;;;;17.16;100.00;98974.78;5029648;28;20226;-77
2023/06/08 04:30:09;;;;;;;8.67;7.67;;;;;;;17.14;100.00;98985.66;5027547;28;20236;-77
2023/06/08 04:32:38;;;;;;;10.03;7.57;;;;;;;17.06;100.00;98984.66;5025873;28;20200;-77
2023/06/08 04:35:06;;;;;;;8.30;7.50;;;;;;;17.20;100.00;98992.25;5026538;28;20190;-77
2023/06/08 04:37:35;;;;;;;8.53;7.47;;;;;;;17.23;100.00;98989.28;5024432;28;20201;-77
2023/06/08 04:40:06;;;;;;;10.17;7.70;;;;;;;17.28;100.00;98981.69;5024655;28;20197;-77
2023/06/08 04:42:38;;;;;;;8.53;7.67;;;;;;;17.32;100.00;98988.41;5027922;28;20208;-77
2023/06/08 04:45:08;;;;;;;8.40;6.83;;;;;;;17.39;100.00;98991.38;5025740;28;20228;-76
2023/06/08 04:47:36;;;;;;;9.43;7.97;;;;;;;17.35;100.00;98996.16;5028209;28;20206;-76
2023/06/08 04:50:08;;;;;;;9.83;7.80;;;;;;;17.48;100.00;98993.19;5027779;28;20190;-77
2023/06/08 04:52:40;;;;;;;8.47;7.70;;;;;;;17.56;100.00;98995.09;5024397;28;20203;-77
2023/06/08 04:55:13;;;;;;;12.13;8.93;;;;;;;17.65;100.00;98999.59;5026994;28;20771;-77
2023/06/08 04:57:41;;;;;;;9.57;7.30;;;;;;;17.68;100.00;99000.16;5029527;28;20232;-77
2023/06/08 05:00:12;;;;;;;8.50;7.70;;;;;;;17.70;100.00;98997.34;5025002;28;20204;-77
2023/06/08 05:02:41;;;;;;;7.77;6.90;;;;;;;17.64;100.00;98995.22;5023865;28;20201;-77
2023/06/08 05:05:09;;;;;;;8.23;7.33;;;;;;;17.83;100.00;98997.00;5027162;28;20688;-77
2023/06/08 05:07:38;;;;;;;7.50;6.80;;;;;;;17.89;100.00;98994.59;5024819;28;20281;-77
2023/06/08 05:10:08;;;;;;;8.27;7.47;;;;;;;17.99;100.00;99003.41;5029194;28;20194;-77
2023/06/08 05:12:38;;;;;;;7.83;7.03;;;;;;;17.88;100.00;98994.75;5029178;28;20193;-77
2023/06/08 05:15:08;;;;;;;8.10;6.90;;;;;;;18.04;100.00;98997.59;5024478;28;20197;-77
2023/06/08 05:17:36;;;;;;;8.33;6.97;;;;;;;18.30;100.00;98993.22;5023997;28;20209;-77
2023/06/08 05:20:05;;;;;;;7.43;6.73;;;;;;;18.20;100.00;99002.31;5024803;28;20255;-77
2023/06/08 05:22:34;;;;;;;8.17;7.30;;;;;;;18.38;100.00;98992.47;5024869;28;20205;-77
2023/06/08 05:25:03;;;;;;;8.07;7.27;;;;;;;18.44;100.00;98991.88;5022138;28;20226;-77
2023/06/08 05:27:31;;;;;;;9.00;7.37;;;;;;;18.57;100.00;98994.16;5031510;28;20221;-77
2023/06/08 05:30:01;;;;;;;9.00;7.33;;;;;;;18.51;100.00;98989.38;5024888;28;20198;-77
2023/06/08 05:32:32;;;;;;;7.30;6.60;;;;;;;18.76;100.00;98993.19;5024825;28;20221;-77
2023/06/08 05:35:01;;;;;;;8.07;6.97;;;;;;;18.86;100.00;98999.31;5024134;28;20205;-77
2023/06/08 05:37:30;;;;;;;8.37;7.33;;;;;;;18.92;100.00;98995.19;5032740;28;20276;-76
2023/06/08 05:39:58;;;;;;;7.17;6.47;;;;;;;19.08;100.00;98988.06;5022628;28;20224;-77
2023/06/08 05:42:26;;;;;;;7.72;7.00;;;;;;;19.35;100.00;98981.72;5025150;28;20221;-77
2023/06/08 05:44:55;;;;;;;8.13;6.67;;;;;;;19.34;100.00;98987.25;5026675;28;20222;-77
2023/06/08 05:47:24;;;;;;;9.15;6.80;;;;;;;19.31;100.00;98988.44;5026369;28;20217;-77
2023/06/08 05:49:59;;;;;;;8.37;7.10;;;;;;;19.30;100.00;98983.19;5027539;28;20714;-77
2023/06/08 05:52:27;;;;;;;7.90;7.10;;;;;;;19.44;100.00;98982.63;4987500;28;20203;-77
2023/06/08 05:54:55;;;;;;;7.97;6.70;;;;;;;19.41;100.00;98978.41;4987561;28;20234;-77
2023/06/08 05:57:25;;;;;;;7.70;6.77;;;;;;;19.45;100.00;98987.00;4985933;28;20191;-77
2023/06/08 05:59:53;;;;;;;7.70;6.90;;;;;;;19.55;100.00;98979.66;4982115;28;20209;-78
2023/06/08 06:02:22;;;;;;;7.35;6.72;;;;;;;19.44;100.00;98975.41;4990973;28;20226;-77
2023/06/08 06:04:51;;;;;;;7.57;6.87;;;;;;;19.41;100.00;98978.41;4988401;28;20206;-77
2023/06/08 06:07:20;;;;;;;7.70;7.00;;;;;;;19.52;100.00;98981.84;4983842;28;20226;-77
2023/06/08 06:09:48;;;;;;;8.50;7.20;;;;;;;19.69;100.00;98981.78;4989557;28;20202;-77
2023/06/08 06:12:17;;;;;;;7.53;6.80;;;;;;;19.81;100.00;98978.81;4998236;28;20264;-77
2023/06/08 06:14:48;;;;;;;7.55;6.78;;;;;;;19.78;100.00;98976.44;5019645;28;20212;-77
2023/06/08 06:17:17;;;;;;;7.75;7.07;;;;;;;19.99;100.00;98975.03;5027111;28;20233;-77
2023/06/08 06:19:45;;;;;;;10.05;7.25;;;;;;;20.10;100.00;98973.03;5025062;28;20243;-78
2023/06/08 06:22:16;;;;;;;8.23;6.97;;;;;;;20.08;100.00;98972.38;5036096;28;20201;-77
2023/06/08 06:24:45;;;;;;;7.53;6.40;;;;;;;20.23;100.00;98979.63;4968064;28;20259;-77
2023/06/08 06:27:14;;;;;;;10.45;7.20;;;;;;;20.34;100.00;98973.09;4972315;28;20270;-77
2023/06/08 06:29:43;;;;;;;8.02;7.28;;;;;;;20.51;100.00;98974.84;4961326;28;20286;-77
2023/06/08 06:32:11;;;;;;;9.20;6.65;;;;;;;20.71;100.00;98971.84;4965892;28;20203;-77
2023/06/08 06:34:39;;;;;;;8.32;6.90;;;;;;;20.58;100.00;98967.81;4963981;28;20340;-78
2023/06/08 06:37:08;;;;;;;7.13;6.43;;;;;;;20.64;100.00;98968.97;4965587;28;20196;-77
2023/06/08 06:39:38;;;;;;;7.90;7.10;;;;;;;20.80;100.00;98971.69;4972302;28;20228;-77
2023/06/08 06:42:07;;;;;;;7.80;7.10;;;;;;;20.78;100.00;98971.00;4976737;28;20202;-77
2023/06/08 06:44:35;;;;;;;7.50;6.70;;;;;;;20.96;100.00;98975.38;5025219;28;20201;-77
2023/06/08 06:47:04;;;;;;;7.57;6.88;;;;;;;21.24;100.00;98983.94;5030073;28;20228;-77
2023/06/08 06:49:32;;;;;;;7.78;6.93;;;;;;;21.00;100.00;98976.72;4949387;29;20204;-77
2023/06/08 06:52:01;;;;;;;7.25;6.65;;;;;;;21.10;100.00;98975.53;4948185;29;20200;-78
2023/06/08 06:54:29;;;;;;;7.85;7.15;;;;;;;21.03;100.00;98985.28;4952614;29;20208;-77
2023/06/08 06:56:59;;;;;;;7.35;6.65;;;;;;;21.34;100.00;98984.66;4952479;29;20196;-77
2023/06/08 06:59:28;;;;;;;7.38;6.68;;;;;;;21.49;100.00;98988.31;4945447;29;20276;-77
2023/06/08 07:01:56;;;;;;;8.20;7.00;;;;;;;21.57;100.00;98982.06;4948584;29;20199;-77
2023/06/08 07:04:25;;;;;;;7.60;6.90;;;;;;;21.88;100.00;98987.50;4949303;29;20280;-78
2023/06/08 07:06:54;;;;;;;8.88;7.22;;;;;;;21.87;100.00;98985.81;4946181;29;20303;-77
2023/06/08 07:09:23;;;;;;;7.15;6.55;;;;;;;21.93;100.00;98985.97;4952609;29;20200;-77
2023/06/08 07:11:52;;;;;;;7.90;7.10;;;;;;;21.88;100.00;98980.25;4951522;29;20208;-77
2023/06/08 07:14:43;;;;;;;8.48;6.65;;;;;;;22.22;100.00;98979.13;5009399;28;20201;-77
2023/06/08 07:17:13;;;;;;;8.02;7.22;;;;;;;22.18;100.00;98978.63;5031536;28;20202;-77
2023/06/08 07:19:45;;;;;;;8.73;6.70;;;;;;;22.13;100.00;98982.88;5030267;28;20190;-77
2023/06/08 07:22:14;;;;;;;7.68;6.53;;;;;;;22.15;100.00;98973.59;5030248;28;20197;-77
2023/06/08 07:24:55;;;;;;;8.13;7.30;;;;;;;21.94;100.00;98981.44;5033995;28;20201;-78
2023/06/08 07:27:45;;;;;;;8.20;7.22;;;;;;;22.21;100.00;98981.00;5033535;28;20279;-77
2023/06/08 07:30:16;;;;;;;8.10;7.10;;;;;;;22.28;100.00;98979.25;5032168;28;20193;-77
2023/06/08 07:32:45;;;;;;;8.15;6.90;;;;;;;21.95;100.00;98978.53;5025363;28;20217;-77
2023/06/08 07:35:14;;;;;;;7.47;6.75;;;;;;;22.12;100.00;98978.50;5032443;28;20342;-77
2023/06/08 07:37:42;;;;;;;8.95;7.22;;;;;;;22.09;100.00;98973.44;5024793;28;20661;-77
2023/06/08 07:40:11;;;;;;;7.10;6.28;;;;;;;22.21;100.00;98977.47;5025840;28;20216;-77
2023/06/08 07:42:40;;;;;;;9.27;7.07;;;;;;;22.26;100.00;98975.88;5023306;28;20221;-77
2023/06/08 07:45:11;;;;;;;7.90;6.93;;;;;;;22.47;100.00;98979.81;5031628;28;20201;-77
2023/06/08 07:47:42;;;;;;;8.80;6.82;;;;;;;22.68;100.00;98976.47;5029191;28;20218;-78
2023/06/08 07:50:12;;;;;;;7.30;6.60;;;;;;;22.94;100.00;98979.66;5031876;28;20193;-77
2023/06/08 07:52:41;;;;;;;8.75;7.20;;;;;;;22.85;100.00;98978.88;5031398;28;20197;-77
2023/06/08 07:55:13;;;;;;;7.95;7.03;;;;;;;23.05;100.00;98970.28;5026159;28;20220;-77
2023/06/08 07:57:44;;;;;;;7.80;7.10;;;;;;;22.97;100.00;98973.06;5030052;28;20567;-77
2023/06/08 08:00:13;;;;;;;8.00;7.30;;;;;;;23.13;100.00;98971.06;5027181;28;20278;-77
2023/06/08 08:02:43;;;;;;;7.35;6.65;;;;;;;23.21;100.00;98966.59;5026069;28;20277;-77
2023/06/08 08:05:12;;;;;;;10.15;7.00;;;;;;;23.25;100.00;98973.31;5028596;28;20205;-78
2023/06/08 08:07:43;;;;;;;7.80;7.00;;;;;;;23.50;100.00;98966.63;5028411;28;20221;-78
2023/06/08 08:10:11;;;;;;;9.43;7.40;;;;;;;23.63;100.00;98974.13;5026611;28;20556;-78
2023/06/08 08:12:42;;;;;;;8.02;7.22;;;;;;;23.54;100.00;98973.34;5025520;28;20194;-78
2023/06/08 08:15:11;;;;;;;8.88;6.95;;;;;;;23.52;100.00;98969.16;5025598;28;20204;-78
2023/06/08 08:17:40;;;;;;;8.80;6.65;;;;;;;23.63;100.00;98969.56;5025493;28;20200;-78
2023/06/08 08:20:11;;;;;;;7.78;6.90;;;;;;;24.06;100.00;98971.59;5025780;28;20212;-77
2023/06/08 08:22:39;;;;;;;6.78;6.18;;;;;;;24.28;100.00;98971.44;5025453;28;20649;-77
2023/06/08 08:25:09;;;;;;;10.18;7.03;;;;;;;24.06;100.00;98971.59;5027192;28;20206;-78
2023/06/08 08:27:37;;;;;;;7.65;6.68;;;;;;;24.39;100.00;98964.72;5029501;28;20323;-78
2023/06/08 08:30:07;;;;;;;7.45;6.75;;;;;;;24.25;100.00;98965.56;5030813;28;20239;-78
2023/06/08 08:32:36;;;;;;;7.43;6.82;;;;;;;24.36;100.00;98966.97;5033525;28;20194;-77
2023/06/08 08:38:03;;;;;;;7.82;7.03;;;;;;;24.65;100.00;98966.03;5032430;28;20185;-77
2023/06/08 08:40:31;;;;;;;7.80;7.00;;;;;;;24.71;100.00;98965.28;5022091;28;20198;-78
2023/06/08 08:43:07;;;;;;;8.00;7.20;;;;;;;24.56;100.00;98957.19;5026982;28;20193;-78
2023/06/08 08:45:38;;;;;;;8.50;7.45;;;;;;;24.87;100.00;98950.59;5027727;28;20248;-77
2023/06/08 08:48:07;;;;;;;7.13;6.40;;;;;;;24.85;100.00;98953.50;5026973;28;20222;-77
2023/06/08 08:50:36;;;;;;;7.45;6.65;;;;;;;25.05;100.00;98956.44;5033250;28;20198;-78
2023/06/08 08:53:09;;;;;;;7.38;6.78;;;;;;;25.23;96.77;98948.66;5030252;28;20249;-78
2023/06/08 08:55:41;;;;;;;7.10;6.40;;;;;;;25.20;100.00;98954.47;5025192;28;20202;-78
2023/06/08 08:58:11;;;;;;;7.53;6.30;;;;;;;25.36;94.30;98954.16;5022136;28;20273;-78
2023/06/08 09:00:41;;;;;;;8.93;7.30;;;;;;;25.32;93.04;98963.72;5029787;28;20703;-78
2023/06/08 09:03:09;;;;;;;6.97;6.28;;;;;;;25.65;90.31;98954.97;5033165;28;20201;-78
2023/06/08 09:05:38;;;;;;;6.50;6.00;;;;;;;25.55;95.18;98957.19;5023932;28;20284;-78
2023/06/08 09:08:09;;;;;;;7.22;6.47;;;;;;;25.63;94.45;98962.47;5026795;28;20217;-78
2023/06/08 09:10:38;;;;;;;8.07;6.40;;;;;;;25.66;90.48;98954.75;5026430;28;20228;-79
2023/06/08 09:13:07;;;;;;;7.80;6.10;;;;;;;25.93;85.42;98952.22;5023874;28;20592;-78
2023/06/08 09:15:37;;;;;;;6.28;5.63;;;;;;;25.93;88.46;98946.78;5027425;28;20252;-78
2023/06/08 09:18:16;;;;;;;6.97;5.82;;;;;;;26.27;84.37;98954.03;5023557;28;20197;-77
2023/06/08 09:20:45;;;;;;;6.75;6.15;;;;;;;26.24;80.40;98951.72;5029934;28;20663;-78
2023/06/08 09:23:22;;;;;;;7.13;6.50;;;;;;;26.55;82.64;98944.94;5029973;28;20209;-78
2023/06/08 09:25:51;;;;;;;9.07;5.68;;;;;;;26.62;79.18;98945.78;5027877;28;20217;-78
2023/06/08 09:28:25;;;;;;;6.00;5.50;;;;;;;26.27;82.95;98937.75;5024651;28;20241;-78
2023/06/08 09:30:59;;;;;;;5.88;5.30;;;;;;;26.74;77.87;98942.25;5027277;28;20204;-77
2023/06/08 09:33:29;;;;;;;7.05;5.60;;;;;;;26.87;80.55;98930.56;5029608;28;20243;-78
2023/06/08 09:36:15;;;;;;;6.22;5.10;;;;;;;26.67;78.94;98935.97;5023873;28;20198;-77
2023/06/08 09:38:47;;;;;;;5.75;5.15;;;;;;;26.87;75.63;98930.56;5028034;28;20599;-77
2023/06/08 09:41:17;;;;;;;7.00;5.50;;;;;;;26.88;78.87;98932.22;5028836;28;20186;-77
2023/06/08 09:43:49;;;;;;;6.00;5.40;;;;;;;26.87;77.77;98933.28;5024610;28;20208;-78
2023/06/08 09:46:34;;;;;;;6.28;5.60;;;;;;;26.86;76.17;98922.59;5028319;28;20208;-78
2023/06/08 09:49:05;;;;;;;6.80;6.20;;;;;;;27.02;74.73;98933.03;5026125;28;20217;-78
2023/06/08 09:51:36;;;;;;;7.75;5.78;;;;;;;26.99;73.79;98928.03;5023452;28;20201;-78
2023/06/08 09:54:06;;;;;;;8.88;6.88;;;;;;;26.68;77.18;98931.38;5028727;28;20202;-78
2023/06/08 09:56:38;;;;;;;5.93;5.20;;;;;;;27.29;75.11;98918.41;5029928;28;20193;-78
2023/06/08 09:59:09;;;;;;;6.78;5.88;;;;;;;27.27;78.34;98925.97;5027473;28;20209;-78
2023/06/08 10:01:43;;;;;;;6.78;6.18;;;;;;;27.55;72.26;98922.16;5025150;28;20202;-78
2023/06/08 10:04:21;;;;;;;7.13;6.43;;;;;;;27.80;72.27;98919.59;5030489;28;20216;-79
2023/06/08 10:06:54;;;;;;;6.22;5.63;;;;;;;27.57;69.55;98918.16;5031001;28;20205;-78
2023/06/08 10:09:28;;;;;;;6.47;5.72;;;;;;;28.19;68.58;98910.41;5031325;28;20251;-77
2023/06/08 10:12:00;;;;;;;6.47;5.65;;;;;;;27.67;68.53;98910.41;5036531;28;20188;-77
2023/06/08 10:14:30;;;;;;;5.70;5.20;;;;;;;28.00;67.54;98914.91;4950551;29;20227;-77
2023/06/08 10:16:58;;;;;;;5.45;4.97;;;;;;;28.42;65.19;98904.44;4950879;29;20214;-78
2023/06/08 10:19:28;;;;;;;6.10;5.50;;;;;;;28.17;67.36;98902.44;4951190;29;20196;-78
2023/06/08 10:21:58;;;;;;;5.72;5.22;;;;;;;28.63;65.23;98908.69;4953768;29;20204;-78
2023/06/08 10:24:31;;;;;;;6.70;4.95;;;;;;;28.82;59.30;98909.59;4956347;29;20246;-77
2023/06/08 10:27:10;;;;;;;5.90;5.00;;;;;;;29.05;57.25;98913.41;4947437;29;20311;-76
2023/06/08 10:29:38;;;;;;;6.03;5.13;;;;;;;28.96;56.60;98901.13;4951886;29;20211;-78
2023/06/08 10:32:10;;;;;;;5.05;4.60;;;;;;;28.59;57.64;98907.47;4972273;28;20189;-77
2023/06/08 10:34:40;;;;;;;5.90;5.00;;;;;;;28.58;59.13;98903.91;5032464;28;20193;-77
2023/06/08 10:37:28;;;;;;;5.55;5.13;;;;;;;28.44;60.66;98896.88;5031502;28;20202;-78
2023/06/08 10:40:02;;;;;;;5.70;4.80;;;;;;;28.69;57.68;98905.91;5030950;28;20200;-77
2023/06/08 10:42:33;;;;;;;5.35;4.53;;;;;;;29.25;54.94;98902.31;5023785;28;20205;-78
2023/06/08 10:45:04;;;;;;;6.57;4.70;;;;;;;28.67;58.87;98886.22;5028968;28;20200;-77
2023/06/08 10:47:37;;;;;;;5.68;4.40;;;;;;;28.99;58.07;98880.75;5030200;28;20204;-78
2023/06/08 10:50:10;;;;;;;4.97;4.53;;;;;;;28.80;61.96;98879.81;5028392;28;20197;-77
2023/06/08 10:52:45;;;;;;;5.22;4.72;;;;;;;29.06;60.13;98881.53;5028499;28;20198;-78
2023/06/08 10:55:16;;;;;;;5.18;4.68;;;;;;;29.19;58.82;98875.09;5032226;28;20199;-78
2023/06/08 10:57:45;;;;;;;5.40;4.90;;;;;;;29.47;55.98;98883.59;5034373;28;20233;-78
2023/06/08 11:00:44;;;;;;;4.68;4.28;;;;;;;28.99;56.69;98873.41;5032478;28;20201;-78
2023/06/08 11:03:18;;;;;;;5.22;4.82;;;;;;;29.05;59.04;98871.69;5024956;28;20373;-78
2023/06/08 11:05:50;;;;;;;5.45;4.95;;;;;;;29.25;57.95;98869.59;5035345;28;20201;-78
2023/06/08 11:08:20;;;;;;;5.05;4.50;;;;;;;29.36;58.26;98868.81;5027234;28;20225;-78
2023/06/08 11:10:55;;;;;;;5.30;4.80;;;;;;;28.73;61.38;98863.50;5029836;28;20197;-77
2023/06/08 11:13:24;;;;;;;6.30;4.38;;;;;;;28.61;59.54;98862.56;5028595;28;20201;-77
2023/06/08 11:15:52;;;;;;;4.82;4.40;;;;;;;28.01;62.35;98866.72;5032446;28;20197;-78
2023/06/08 11:18:21;;;;;;;7.47;4.93;;;;;;;28.24;62.63;98867.00;5031173;28;20231;-77
2023/06/08 11:20:50;;;;;;;5.30;4.78;;;;;;;27.79;64.37;98863.44;5025387;28;20668;-77
2023/06/08 11:23:18;;;;;;;5.53;5.03;;;;;;;27.90;64.19;98863.63;5032049;28;20224;-78
2023/06/08 11:25:49;;;;;;;4.97;4.55;;;;;;;27.60;63.39;98860.59;5028728;28;20208;-78
2023/06/08 11:28:18;;;;;;;5.72;5.22;;;;;;;27.85;63.75;98854.44;5033512;28;20218;-77
2023/06/08 11:30:47;;;;;;;5.15;4.65;;;;;;;27.54;66.61;98847.84;5031811;28;20209;-77
2023/06/08 11:33:18;;;;;;;6.07;5.18;;;;;;;27.29;67.91;98850.41;5030384;28;20201;-77
2023/06/08 11:35:51;;;;;;;6.00;5.40;;;;;;;27.35;69.43;98855.00;5030727;28;20197;-78
2023/06/08 11:38:22;;;;;;;7.18;4.80;;;;;;;27.33;69.93;98846.22;4986124;28;20283;-77
2023/06/08 11:40:57;;;;;;;7.45;5.28;;;;;;;26.95;72.42;98848.78;4988495;28;20203;-77
2023/06/08 11:43:27;;;;;;;6.45;5.07;;;;;;;26.72;73.66;98845.66;4987641;28;20187;-77
2023/06/08 11:45:59;;;;;;;6.97;5.05;;;;;;;26.67;75.94;98846.28;4945868;29;20295;-77